Time;durP1;ratioP1;P1;durP2;ratioP2;P2;SDS_P1;SDS_P2;PMS_P1;PMS_P2;Temp;Humidity;BMP_temperature;BMP_pressure;BME280_temperature;BME280_humidity;BME280_pressure;Samples;Min_cycle;Max_cycle;Signal;HPM_P1;HPM_P2
2022/03/28 00:00:29;;;;;;;41.90;18.00;;;;;;;1.85;33.30;99996.13;106139;1271;107787;-69
2022/03/28 00:03:10;;;;;;;46.50;18.20;;;;;;;1.85;33.24;99991.40;106073;1271;96597;-69
2022/03/28 00:05:39;;;;;;;41.40;16.80;;;;;;;1.84;33.38;99989.69;106141;1270;96522;-70
2022/03/28 00:08:07;;;;;;;38.10;16.80;;;;;;;1.84;33.15;99990.55;106077;1270;110045;-71
2022/03/28 00:10:35;;;;;;;40.10;16.10;;;;;;;1.86;33.46;99990.87;106107;1271;96474;-71
2022/03/28 00:13:03;;;;;;;39.70;17.50;;;;;;;1.87;33.50;99988.73;106051;1271;106291;-71
2022/03/28 00:15:31;;;;;;;40.20;15.80;;;;;;;1.91;33.38;99990.24;106063;1271;94624;-70
2022/03/28 00:17:59;;;;;;;40.70;16.40;;;;;;;1.94;33.52;99990.69;106122;1271;96472;-67
2022/03/28 00:20:27;;;;;;;37.80;16.80;;;;;;;1.96;33.50;99988.21;106177;1271;109991;-71
2022/03/28 00:22:55;;;;;;;39.90;16.20;;;;;;;1.95;33.47;99988.05;106243;1271;96479;-71
2022/03/28 00:25:23;;;;;;;36.50;16.10;;;;;;;1.93;33.32;99985.98;106188;1271;107739;-71
2022/03/28 00:27:51;;;;;;;34.20;13.30;;;;;;;1.93;33.66;99984.76;106142;1271;94273;-70
2022/03/28 00:30:19;;;;;;;33.00;13.20;;;;;;;1.95;33.50;99979.66;106117;1271;97983;-71
2022/03/28 00:32:47;;;;;;;31.90;12.80;;;;;;;1.98;33.49;99979.25;106199;1271;111443;-69
2022/03/28 00:35:17;;;;;;;31.20;13.50;;;;;;;2.00;33.68;99973.77;106160;1271;97877;-69
2022/03/28 00:37:45;;;;;;;32.30;12.20;;;;;;;2.03;33.65;99975.10;106172;1270;107503;-70
2022/03/28 00:40:13;;;;;;;35.40;13.70;;;;;;;2.05;33.78;99973.98;106122;1271;97963;-70
2022/03/28 00:42:42;;;;;;;29.60;12.30;;;;;;;2.07;33.56;99970.61;106271;1271;96084;-70
2022/03/28 00:45:10;;;;;;;33.80;12.40;;;;;;;2.10;33.69;99965.48;106168;1271;109404;-70
2022/03/28 00:47:38;;;;;;;32.50;12.90;;;;;;;2.12;33.78;99965.42;106038;1271;97963;-70
2022/03/28 00:50:08;;;;;;;28.40;12.60;;;;;;;2.15;33.90;99959.05;106163;1271;107800;-72
2022/03/28 00:52:38;;;;;;;34.40;12.70;;;;;;;2.18;33.92;99950.78;106248;1271;98673;-71
2022/03/28 00:55:07;;;;;;;27.70;11.20;;;;;;;2.21;33.92;99943.35;106136;1271;97834;-69
2022/03/28 00:57:35;;;;;;;31.80;13.40;;;;;;;2.25;33.99;99939.60;106174;1271;111434;-69
2022/03/28 01:00:07;;;;;;;30.60;11.80;;;;;;;2.27;33.88;99936.20;106154;1270;98005;-70
2022/03/28 01:02:36;;;;;;;30.30;12.10;;;;;;;2.29;33.94;99932.30;106153;1271;107759;-69
2022/03/28 01:05:05;;;;;;;30.40;12.40;;;;;;;2.32;34.01;99930.84;106131;1271;95387;-70
2022/03/28 01:07:33;;;;;;;34.30;13.70;;;;;;;2.33;33.90;99936.94;106220;1271;97862;-70
2022/03/28 01:10:02;;;;;;;30.00;12.60;;;;;;;2.32;34.19;99935.74;106120;1271;111989;-71
2022/03/28 01:12:32;;;;;;;33.40;12.90;;;;;;;2.27;33.98;99928.35;106197;1271;98568;-71
2022/03/28 01:15:00;;;;;;;34.00;12.60;;;;;;;2.25;33.97;99925.23;106138;1271;106851;-71
2022/03/28 01:20:14;;;;;;;33.90;12.20;;;;;;;2.26;34.13;99916.80;106234;1271;97905;-70
2022/03/28 01:22:42;;;;;;;30.20;12.40;;;;;;;2.27;34.15;99908.73;106025;1271;111264;-70
2022/03/28 01:25:11;;;;;;;32.90;13.40;;;;;;;2.27;34.09;99904.16;106158;1271;96616;-71
2022/03/28 01:27:40;;;;;;;33.10;12.80;;;;;;;2.26;34.02;99899.48;106174;1271;107775;-70
2022/03/28 01:30:09;;;;;;;31.90;12.60;;;;;;;2.23;34.26;99895.02;106177;1271;96104;-70
2022/03/28 01:32:37;;;;;;;32.00;13.00;;;;;;;2.19;34.10;99894.05;106295;1270;97860;-69
2022/03/28 01:35:05;;;;;;;30.10;11.90;;;;;;;2.16;34.05;99888.54;106162;1271;111453;-72
2022/03/28 01:37:33;;;;;;;30.30;12.10;;;;;;;2.11;34.30;99888.65;106248;1271;95297;-70
2022/03/28 01:40:01;;;;;;;29.50;12.60;;;;;;;2.05;34.28;99884.40;106242;1271;106492;-69
2022/03/28 01:42:29;;;;;;;34.80;14.20;;;;;;;2.02;34.19;99880.46;106292;1271;97889;-69
2022/03/28 01:44:57;;;;;;;31.90;12.40;;;;;;;2.02;34.35;99874.52;106279;1270;96591;-70
2022/03/28 01:47:26;;;;;;;30.30;12.00;;;;;;;2.01;34.24;99872.10;106233;1270;111402;-71
2022/03/28 01:49:54;;;;;;;28.00;11.30;;;;;;;1.99;34.23;99866.20;106325;1271;96007;-70
2022/03/28 01:52:22;;;;;;;30.70;13.00;;;;;;;1.98;34.42;99864.65;106241;1268;105981;-70
2022/03/28 01:54:50;;;;;;;31.70;13.10;;;;;;;1.95;34.34;99865.41;106229;1271;97972;-71
2022/03/28 01:57:18;;;;;;;32.50;13.00;;;;;;;1.95;34.37;99871.55;106247;1270;97867;-71
2022/03/28 01:59:46;;;;;;;29.60;12.50;;;;;;;1.93;34.42;99871.77;106303;1270;111363;-69
2022/03/28 02:02:14;;;;;;;32.40;12.70;;;;;;;1.90;34.39;99869.55;106322;1271;96552;-70
2022/03/28 02:04:42;;;;;;;28.50;11.50;;;;;;;1.89;34.62;99869.06;106313;1269;108322;-69
2022/03/28 02:07:10;;;;;;;26.40;11.40;;;;;;;1.86;34.59;99865.62;106288;1270;97983;-68
2022/03/28 02:09:38;;;;;;;31.00;12.70;;;;;;;1.84;34.63;99864.83;106249;1271;97939;-68
2022/03/28 02:12:07;;;;;;;31.00;12.30;;;;;;;1.81;34.54;99864.73;106205;1271;111018;-71
2022/03/28 02:14:35;;;;;;;29.90;12.40;;;;;;;1.77;34.57;99860.59;106254;1271;95867;-72
2022/03/28 02:17:03;;;;;;;30.20;12.40;;;;;;;1.74;34.65;99858.39;106236;1271;107720;-71
2022/03/28 02:19:31;;;;;;;30.60;11.90;;;;;;;1.73;34.68;99852.83;106224;1271;97646;-70
2022/03/28 02:21:58;;;;;;;30.70;11.80;;;;;;;1.69;34.59;99848.90;106187;1271;97853;-70
2022/03/28 02:24:27;;;;;;;27.40;11.40;;;;;;;1.64;34.60;99848.83;106245;1271;111003;-70
2022/03/28 02:26:55;;;;;;;28.00;11.40;;;;;;;1.61;34.70;99844.19;106252;1270;98002;-70
2022/03/28 02:29:23;;;;;;;33.60;11.50;;;;;;;1.58;34.71;99842.52;106185;1271;107573;-70
2022/03/28 02:31:51;;;;;;;30.00;11.30;;;;;;;1.57;34.82;99843.23;106184;1271;95253;-70
2022/03/28 02:34:19;;;;;;;28.70;11.00;;;;;;;1.56;34.78;99838.19;106290;1271;97749;-71
2022/03/28 02:36:47;;;;;;;26.20;10.30;;;;;;;1.56;34.87;99832.08;106238;1271;111000;-70
2022/03/28 02:39:14;;;;;;;29.80;11.90;;;;;;;1.54;34.88;99831.06;106306;1270;95946;-69
2022/03/28 02:41:42;;;;;;;28.50;11.30;;;;;;;1.54;34.88;99826.00;106271;1270;107432;-74
2022/03/28 02:44:10;;;;;;;26.10;10.20;;;;;;;1.55;34.85;99825.45;106235;1271;97979;-68
2022/03/28 02:46:38;;;;;;;31.70;11.60;;;;;;;1.55;34.99;99824.23;106291;1271;97835;-70
2022/03/28 02:49:09;;;;;;;26.10;10.20;;;;;;;1.55;34.90;99817.23;106228;1271;111423;-71
2022/03/28 02:51:36;;;;;;;27.70;10.90;;;;;;;1.56;35.05;99817.38;106272;1271;97962;-70
2022/03/28 02:54:04;;;;;;;25.60;10.10;;;;;;;1.58;34.91;99813.85;106133;1271;107758;-73
2022/03/28 02:56:33;;;;;;;27.60;10.10;;;;;;;1.59;34.99;99813.29;106246;1271;98017;-70
2022/03/28 02:59:01;;;;;;;26.50;9.30;;;;;;;1.59;34.91;99807.70;106308;1270;97716;-71
2022/03/28 03:01:29;;;;;;;27.30;10.40;;;;;;;1.57;35.17;99808.97;106218;1271;113690;-70
2022/03/28 03:03:57;;;;;;;27.10;10.00;;;;;;;1.57;35.22;99808.08;106258;1271;96561;-71
2022/03/28 03:06:25;;;;;;;26.90;10.40;;;;;;;1.59;35.21;99808.92;106276;1271;108053;-71
2022/03/28 03:08:53;;;;;;;23.20;8.70;;;;;;;1.61;35.08;99809.93;106255;1270;98047;-70
2022/03/28 03:11:22;;;;;;;27.20;9.40;;;;;;;1.63;35.31;99807.60;106281;1271;97863;-71
2022/03/28 03:13:53;;;;;;;25.60;10.00;;;;;;;1.65;35.34;99808.95;106274;1269;113176;-72
2022/03/28 03:16:20;;;;;;;26.20;9.10;;;;;;;1.67;35.39;99806.46;106329;1271;97885;-70
2022/03/28 03:18:49;;;;;;;29.40;10.50;;;;;;;1.68;35.40;99805.05;106303;1270;107640;-71
2022/03/28 03:21:17;;;;;;;26.30;9.60;;;;;;;1.69;35.45;99807.28;106267;1271;97833;-70
2022/03/28 03:23:45;;;;;;;29.60;11.00;;;;;;;1.70;35.47;99806.38;106187;1271;98267;-70
2022/03/28 03:26:13;;;;;;;29.30;11.60;;;;;;;1.72;35.48;99804.59;106319;1270;110839;-71
2022/03/28 03:28:41;;;;;;;27.70;10.30;;;;;;;1.74;35.50;99802.96;106342;1271;97886;-71
2022/03/28 03:31:09;;;;;;;28.00;10.20;;;;;;;1.75;35.61;99803.47;106233;1271;107609;-70
2022/03/28 03:33:37;;;;;;;29.70;10.40;;;;;;;1.76;35.67;99805.71;106320;1271;97892;-71
2022/03/28 03:36:06;;;;;;;27.90;10.60;;;;;;;1.77;35.66;99804.98;106226;1271;97850;-71
2022/03/28 03:38:34;;;;;;;26.10;10.00;;;;;;;1.78;35.73;99805.48;105892;1271;371065;-70
2022/03/28 03:41:02;;;;;;;24.30;9.20;;;;;;;1.79;35.76;99800.39;106141;1271;95216;-69
2022/03/28 03:43:30;;;;;;;23.90;8.40;;;;;;;1.80;35.80;99798.98;106164;1271;107751;-70
2022/03/28 03:45:58;;;;;;;22.20;7.70;;;;;;;1.81;35.77;99800.54;106229;1271;95248;-69
2022/03/28 03:48:27;;;;;;;24.80;9.50;;;;;;;1.82;35.70;99799.30;106141;1271;97825;-68
2022/03/28 03:50:56;;;;;;;23.40;9.00;;;;;;;1.83;35.57;99799.09;106108;1271;110303;-70
2022/03/28 03:53:23;;;;;;;26.30;9.50;;;;;;;1.83;35.83;99791.71;106200;1269;97869;-70
2022/03/28 03:55:51;;;;;;;25.00;8.90;;;;;;;1.85;35.84;99793.42;106216;1271;107709;-69
2022/03/28 03:58:19;;;;;;;25.60;8.50;;;;;;;1.87;35.84;99794.77;106186;1271;98039;-70
2022/03/28 04:00:47;;;;;;;21.90;7.90;;;;;;;1.88;35.77;99788.97;106282;1271;97866;-69
2022/03/28 04:03:15;;;;;;;26.70;9.00;;;;;;;1.89;35.68;99785.27;106225;1271;111455;-68
2022/03/28 04:05:43;;;;;;;26.30;9.80;;;;;;;1.90;35.96;99782.64;106241;1271;96495;-70
2022/03/28 04:08:11;;;;;;;26.70;10.10;;;;;;;1.90;35.90;99778.59;106136;1271;107546;-70
2022/03/28 04:10:39;;;;;;;23.70;8.80;;;;;;;1.92;35.89;99777.68;106139;1271;97870;-70
2022/03/28 04:13:13;;;;;;;22.30;8.70;;;;;;;1.94;35.99;99781.82;106083;1271;95659;-70
2022/03/28 04:15:41;;;;;;;23.00;8.00;;;;;;;1.95;36.03;99781.63;106094;1271;111190;-69
2022/03/28 04:18:09;;;;;;;21.50;7.50;;;;;;;1.96;35.95;99779.50;106024;1274;97985;-69
2022/03/28 04:20:37;;;;;;;23.00;7.90;;;;;;;1.97;35.97;99772.48;106146;1268;108371;-70
2022/03/28 04:23:05;;;;;;;22.40;8.00;;;;;;;1.97;35.99;99768.99;106054;1271;95205;-69
2022/03/28 04:25:33;;;;;;;28.70;9.10;;;;;;;1.98;36.12;99760.23;106155;1271;95277;-69
2022/03/28 04:28:01;;;;;;;27.50;7.90;;;;;;;1.98;36.04;99758.81;106198;1271;111468;-69
2022/03/28 04:30:29;;;;;;;21.90;7.60;;;;;;;1.99;36.20;99754.77;106117;1271;97966;-69
2022/03/28 04:32:57;;;;;;;21.90;7.50;;;;;;;2.00;36.19;99753.52;106141;1271;107797;-70
2022/03/28 04:35:25;;;;;;;24.20;8.30;;;;;;;2.01;36.07;99754.01;106131;1271;98527;-70
2022/03/28 04:37:53;;;;;;;20.60;7.10;;;;;;;2.04;35.95;99755.16;106251;1271;98233;-70
2022/03/28 04:40:20;;;;;;;23.50;8.60;;;;;;;2.05;36.11;99753.54;106265;1270;111500;-69
2022/03/28 04:42:49;;;;;;;25.90;9.10;;;;;;;2.06;36.40;99749.34;106264;1271;96583;-70
2022/03/28 04:45:17;;;;;;;23.50;8.10;;;;;;;2.06;36.39;99742.85;106087;1271;108743;-69
2022/03/28 04:47:45;;;;;;;26.80;8.80;;;;;;;2.06;36.14;99743.90;106177;1271;95981;-70
2022/03/28 04:50:12;;;;;;;23.50;7.50;;;;;;;2.08;36.23;99744.38;106176;1271;95164;-70
2022/03/28 04:52:40;;;;;;;24.30;8.40;;;;;;;2.10;36.16;99742.76;106259;1271;111448;-68
2022/03/28 04:55:09;;;;;;;22.60;7.20;;;;;;;2.11;36.26;99741.85;106218;1270;96046;-69
2022/03/28 04:57:37;;;;;;;20.40;7.20;;;;;;;2.14;36.11;99742.82;106270;1271;108869;-69
2022/03/28 05:00:09;;;;;;;21.90;7.80;;;;;;;2.16;36.41;99741.70;106242;1271;97872;-70
2022/03/28 05:02:37;;;;;;;24.80;8.50;;;;;;;2.19;36.16;99739.54;106023;1271;97878;-70
2022/03/28 05:05:07;;;;;;;22.80;7.40;;;;;;;2.23;36.37;99740.48;106179;1271;110725;-71
2022/03/28 05:07:36;;;;;;;19.50;6.20;;;;;;;2.26;36.32;99740.04;106087;1271;98039;-71
2022/03/28 05:10:05;;;;;;;21.60;6.70;;;;;;;2.30;36.32;99736.27;106233;1271;105509;-71
2022/03/28 05:12:34;;;;;;;20.20;6.40;;;;;;;2.34;36.32;99729.67;106215;1270;97879;-73
2022/03/28 05:15:04;;;;;;;17.80;6.40;;;;;;;2.38;36.41;99730.96;106259;1271;97875;-71
2022/03/28 05:17:32;;;;;;;20.80;6.60;;;;;;;2.43;36.45;99726.45;106196;1271;111404;-71
2022/03/28 05:20:00;;;;;;;21.90;6.70;;;;;;;2.47;36.62;99729.80;106145;1271;98091;-70
2022/03/28 05:22:28;;;;;;;23.20;7.10;;;;;;;2.52;36.73;99726.88;106173;1271;107895;-70
2022/03/28 05:24:57;;;;;;;19.30;6.80;;;;;;;2.57;36.71;99726.74;106185;1270;97934;-71
2022/03/28 05:27:25;;;;;;;19.60;6.70;;;;;;;2.63;36.73;99727.27;106422;1271;97825;-69
2022/03/28 05:29:53;;;;;;;23.90;7.50;;;;;;;2.68;36.66;99724.13;106406;1271;111035;-70
2022/03/28 05:32:21;;;;;;;23.80;7.60;;;;;;;2.74;36.72;99720.83;106223;1271;96061;-72
2022/03/28 05:34:50;;;;;;;19.10;6.50;;;;;;;2.79;36.97;99713.67;106242;1269;107719;-71
2022/03/28 05:37:18;;;;;;;20.60;6.60;;;;;;;2.84;36.52;99709.16;106312;1271;97994;-70
2022/03/28 05:39:48;;;;;;;22.00;7.20;;;;;;;2.89;36.86;99710.04;106256;1271;96189;-71
2022/03/28 05:42:17;;;;;;;22.20;7.20;;;;;;;2.95;37.01;99711.43;106336;1271;111412;-71
2022/03/28 05:44:46;;;;;;;19.50;6.60;;;;;;;3.00;36.71;99711.45;106278;1271;98058;-70
2022/03/28 05:47:14;;;;;;;24.10;7.00;;;;;;;3.05;37.03;99709.16;106251;1271;107726;-73
2022/03/28 05:49:42;;;;;;;20.70;6.80;;;;;;;3.11;36.71;99702.16;106376;1271;97867;-72
2022/03/28 05:52:10;;;;;;;18.70;6.40;;;;;;;3.17;36.82;99703.04;106339;1271;95172;-72
2022/03/28 05:54:38;;;;;;;23.80;6.80;;;;;;;3.23;36.91;99699.51;106318;1271;111225;-73
2022/03/28 05:57:06;;;;;;;19.30;6.60;;;;;;;3.30;36.86;99698.23;106316;1271;96501;-73
2022/03/28 05:59:34;;;;;;;23.40;6.90;;;;;;;3.37;36.88;99697.48;106336;1271;107717;-72
2022/03/28 06:02:04;;;;;;;19.00;6.30;;;;;;;3.43;36.91;99697.98;106378;1271;97817;-72
2022/03/28 06:04:35;;;;;;;19.50;6.10;;;;;;;3.50;37.07;99694.05;106249;1271;97841;-72
2022/03/28 06:07:03;;;;;;;21.40;6.70;;;;;;;3.58;36.89;99693.62;106493;1270;112064;-72
2022/03/28 06:09:31;;;;;;;19.10;5.80;;;;;;;3.66;37.21;99694.06;106342;1271;97211;-71
2022/03/28 06:11:59;;;;;;;17.70;6.00;;;;;;;3.74;36.94;99694.15;106269;1270;107762;-70
2022/03/28 06:14:27;;;;;;;17.00;6.20;;;;;;;3.82;37.15;99690.36;106286;1271;98322;-71
2022/03/28 06:16:55;;;;;;;15.60;5.60;;;;;;;3.91;37.11;99686.36;106204;1271;98037;-72
2022/03/28 06:19:23;;;;;;;20.90;5.50;;;;;;;3.98;37.08;99678.02;106262;1271;111385;-70
2022/03/28 06:21:51;;;;;;;16.90;5.70;;;;;;;4.07;37.15;99674.74;106257;1271;95948;-70
2022/03/28 06:24:19;;;;;;;18.70;6.00;;;;;;;4.17;37.30;99671.93;106122;1270;107660;-69
2022/03/28 06:26:46;;;;;;;24.80;6.70;;;;;;;4.27;37.22;99665.94;106087;1271;97840;-69
2022/03/28 06:29:18;;;;;;;19.00;6.40;;;;;;;4.37;37.14;99662.39;106135;1270;96851;-70
2022/03/28 06:31:46;;;;;;;21.60;5.90;;;;;;;4.46;36.98;99664.36;106264;1270;112028;-71
2022/03/28 06:34:16;;;;;;;20.40;5.30;;;;;;;4.55;37.32;99664.20;106192;1271;97898;-71
2022/03/28 06:36:45;;;;;;;24.30;5.00;;;;;;;4.64;37.31;99661.56;106094;1271;107918;-73
2022/03/28 06:39:15;;;;;;;17.90;4.80;;;;;;;4.75;37.30;99664.30;106126;1271;97901;-73
2022/03/28 06:41:43;;;;;;;16.80;4.70;;;;;;;4.86;37.37;99668.60;106239;1271;95249;-70
2022/03/28 06:44:14;;;;;;;18.30;5.10;;;;;;;4.99;37.38;99670.02;106171;1271;111340;-74
2022/03/28 06:46:44;;;;;;;12.90;4.50;;;;;;;5.12;37.37;99672.18;106197;1271;95932;-72
2022/03/28 06:49:13;;;;;;;30.00;6.10;;;;;;;5.25;37.32;99673.41;106147;1271;107006;-72
2022/03/28 06:51:41;;;;;;;15.10;4.90;;;;;;;5.38;37.20;99671.45;106194;1271;97907;-70
2022/03/28 06:54:14;;;;;;;16.00;4.90;;;;;;;5.52;37.25;99667.36;106277;1271;95169;-73
2022/03/28 06:56:45;;;;;;;14.50;4.60;;;;;;;5.66;37.29;99670.66;106249;1271;111431;-73
2022/03/28 06:59:14;;;;;;;13.90;4.90;;;;;;;5.78;37.22;99670.84;106240;1269;96921;-73
2022/03/28 07:01:43;;;;;;;16.60;4.70;;;;;;;5.90;37.31;99670.69;106219;1271;108177;-71
2022/03/28 07:04:12;;;;;;;12.80;4.20;;;;;;;6.00;37.29;99669.70;106125;1271;99032;-74
2022/03/28 07:06:40;;;;;;;15.80;5.10;;;;;;;6.13;37.26;99671.11;106151;1269;97896;-75
2022/03/28 07:09:09;;;;;;;14.30;4.00;;;;;;;6.25;37.34;99664.60;106338;1271;111345;-73
2022/03/28 07:11:37;;;;;;;14.30;4.60;;;;;;;6.35;37.18;99664.83;106354;1271;97906;-74
2022/03/28 07:14:05;;;;;;;13.10;4.00;;;;;;;6.47;37.22;99661.84;106159;1271;108247;-71
2022/03/28 07:16:35;;;;;;;15.60;5.20;;;;;;;6.59;37.19;99661.12;106172;1271;96399;-73
2022/03/28 07:19:04;;;;;;;14.30;4.20;;;;;;;6.71;37.16;99658.23;106207;1271;95954;-71
2022/03/28 07:21:35;;;;;;;12.90;4.40;;;;;;;6.82;37.15;99654.53;106142;1270;111395;-74
2022/03/28 07:24:04;;;;;;;12.90;4.60;;;;;;;6.94;37.39;99652.57;106188;1269;97823;-72
2022/03/28 07:26:31;;;;;;;17.20;4.70;;;;;;;7.05;37.13;99644.83;106267;1271;108376;-72
2022/03/28 07:29:02;;;;;;;15.30;4.50;;;;;;;7.17;36.93;99642.84;106283;1271;96436;-72
2022/03/28 07:31:31;;;;;;;15.30;4.50;;;;;;;7.31;37.03;99637.73;106205;1271;95232;-73
2022/03/28 07:36:45;;;;;;;16.70;5.30;;;;;;;7.60;37.15;99635.38;106199;1271;96354;-71
2022/03/28 07:39:14;;;;;;;16.80;4.80;;;;;;;7.83;37.10;99635.47;106287;1270;106871;-72
2022/03/28 07:41:42;;;;;;;14.40;4.80;;;;;;;8.41;37.32;99627.80;106178;1271;99376;-71
2022/03/28 07:44:13;;;;;;;15.20;4.90;;;;;;;9.98;36.75;99627.63;106285;1271;97848;-72
2022/03/28 07:46:44;;;;;;;17.20;5.30;;;;;;;11.91;36.93;99615.18;106147;1270;111334;-72
2022/03/28 07:49:13;;;;;;;12.80;5.10;;;;;;;13.85;37.23;99612.30;106111;1271;97873;-72
2022/03/28 07:51:41;;;;;;;16.50;4.60;;;;;;;15.70;37.52;99606.31;106217;1271;107664;-73
2022/03/28 07:54:09;;;;;;;12.70;4.50;;;;;;;17.33;37.03;99600.94;106199;1271;96568;-74
2022/03/28 07:56:39;;;;;;;12.50;4.70;;;;;;;18.84;37.10;99590.95;106056;1271;97850;-75
2022/03/28 07:59:09;;;;;;;14.50;5.50;;;;;;;20.13;36.79;99583.80;106166;1271;111435;-73
2022/03/28 08:01:36;;;;;;;13.50;5.40;;;;;;;21.37;36.97;99584.88;106259;1271;95218;-72
2022/03/28 08:04:07;;;;;;;12.50;5.30;;;;;;;22.55;36.32;99575.34;106290;1270;106716;-72
2022/03/28 08:06:37;;;;;;;12.80;4.70;;;;;;;23.64;36.44;99565.66;106294;1271;97988;-73
2022/03/28 08:09:05;;;;;;;12.90;5.10;;;;;;;24.61;36.73;99562.13;106224;1271;97871;-72
2022/03/28 08:11:36;;;;;;;13.90;5.50;;;;;;;25.44;36.19;99562.58;106440;1271;111523;-73
2022/03/28 08:14:04;;;;;;;14.20;5.90;;;;;;;26.15;36.47;99563.43;106200;1270;98212;-70
2022/03/28 08:16:32;;;;;;;15.50;6.00;;;;;;;26.77;36.33;99567.21;106229;1271;107747;-72
2022/03/28 08:19:03;;;;;;;17.80;8.30;;;;;;;27.25;34.51;99564.71;106171;1271;97836;-72
2022/03/28 08:21:32;;;;;;;15.50;6.30;;;;;;;27.42;33.88;99558.63;106108;1271;97875;-71
2022/03/28 08:24:01;;;;;;;12.50;4.80;;;;;;;27.76;34.82;99559.09;106134;1271;112049;-70
2022/03/28 08:26:30;;;;;;;11.20;5.10;;;;;;;28.04;33.36;99552.73;106128;1270;99084;-73
2022/03/28 08:28:59;;;;;;;12.90;5.30;;;;;;;28.25;34.30;99553.15;106197;1270;106519;-75
2022/03/28 08:31:28;;;;;;;12.00;4.90;;;;;;;28.45;32.70;99543.27;106166;1271;97973;-71
2022/03/28 08:33:56;;;;;;;17.70;5.80;;;;;;;28.73;34.20;99546.20;106232;1271;97848;-76
2022/03/28 08:36:24;;;;;;;14.60;5.70;;;;;;;28.85;32.96;99540.22;106264;1270;111384;-73
2022/03/28 08:38:52;;;;;;;12.20;5.60;;;;;;;29.24;33.60;99535.16;106025;1271;98017;-74
2022/03/28 08:41:28;;;;;;;12.60;5.70;;;;;;;29.65;33.25;99538.11;106070;1270;107761;-73
2022/03/28 08:43:56;;;;;;;13.00;4.50;;;;;;;29.91;32.54;99531.06;106113;1270;96408;-72
2022/03/28 08:46:30;;;;;;;12.40;5.50;;;;;;;30.21;32.82;99528.77;105936;1271;97860;-73
2022/03/28 08:48:59;;;;;;;11.30;5.40;;;;;;;30.43;32.70;99522.48;106195;1271;111364;-73
2022/03/28 08:51:27;;;;;;;9.80;5.20;;;;;;;30.62;29.97;99520.61;106164;1270;99489;-72
2022/03/28 08:53:56;;;;;;;12.60;5.70;;;;;;;30.59;31.65;99515.36;106097;1271;106695;-73
2022/03/28 08:56:24;;;;;;;12.60;4.90;;;;;;;30.89;31.55;99515.23;106068;1271;97983;-73
2022/03/28 08:59:08;;;;;;;12.00;5.40;;;;;;;31.07;29.63;99511.41;106124;1271;95408;-75
2022/03/28 09:01:37;;;;;;;10.50;5.10;;;;;;;30.79;29.73;99511.17;106249;1271;111013;-76
2022/03/28 09:04:07;;;;;;;13.40;5.70;;;;;;;30.45;29.26;99509.31;106307;1271;97919;-73
2022/03/28 09:06:42;;;;;;;12.20;5.70;;;;;;;30.25;28.63;99506.35;106206;1271;107745;-72
2022/03/28 09:09:20;;;;;;;11.70;5.40;;;;;;;30.20;29.18;99502.10;106109;1270;97991;-71
2022/03/28 09:11:53;;;;;;;13.30;5.70;;;;;;;30.47;29.19;99495.72;106216;1270;97951;-73
2022/03/28 09:14:26;;;;;;;13.40;5.90;;;;;;;30.76;28.72;99498.64;105999;1271;111195;-70
2022/03/28 09:17:04;;;;;;;13.50;6.20;;;;;;;30.78;28.67;99490.98;106285;1271;98413;-73
2022/03/28 09:19:55;;;;;;;14.60;6.40;;;;;;;30.66;27.72;99485.38;106347;1269;107706;-73
2022/03/28 09:22:29;;;;;;;16.30;7.20;;;;;;;30.45;26.18;99483.25;106233;1271;98008;-72
2022/03/28 09:25:00;;;;;;;14.20;5.90;;;;;;;30.31;27.42;99477.27;106391;1271;96782;-73
2022/03/28 09:27:32;;;;;;;14.40;6.10;;;;;;;30.22;26.63;99474.31;106342;1271;111478;-72
2022/03/28 09:30:02;;;;;;;11.50;5.90;;;;;;;30.11;26.95;99469.48;106280;1271;96967;-72
2022/03/28 09:32:34;;;;;;;13.20;6.10;;;;;;;30.22;27.06;99466.53;106228;1271;108560;-72
2022/03/28 09:35:04;;;;;;;15.20;6.80;;;;;;;30.04;26.48;99465.34;106374;1270;97901;-72
2022/03/28 09:37:52;;;;;;;17.50;9.80;;;;;;;29.64;25.89;99455.19;106299;1271;97857;-70
2022/03/28 09:40:23;;;;;;;14.00;6.40;;;;;;;29.39;24.80;99447.02;106269;1271;111378;-72
2022/03/28 09:42:51;;;;;;;15.60;6.50;;;;;;;28.92;23.25;99442.56;106087;1271;97585;-71
2022/03/28 09:45:28;;;;;;;13.00;6.40;;;;;;;28.41;24.47;99433.23;106031;1271;107683;-72
2022/03/28 09:48:01;;;;;;;15.10;6.20;;;;;;;28.53;24.22;99432.81;106123;1271;96967;-88
2022/03/28 09:50:47;;;;;;;13.20;6.30;;;;;;;28.46;24.92;99424.86;106428;1269;97876;-86
2022/03/28 09:53:25;;;;;;;13.10;6.60;;;;;;;28.49;22.88;99419.40;106344;1271;111009;-80
2022/03/28 09:55:56;;;;;;;13.00;6.70;;;;;;;27.71;24.21;99418.60;106522;1271;96236;-82
2022/03/28 09:58:42;;;;;;;17.40;7.80;;;;;;;26.98;22.60;99414.33;106158;1271;107717;-77
2022/03/28 10:01:23;;;;;;;13.90;7.10;;;;;;;25.95;23.56;99412.88;106174;1271;97767;-80
2022/03/28 10:03:55;;;;;;;16.30;6.70;;;;;;;25.61;24.30;99407.99;106445;1271;97403;-78
2022/03/28 10:06:25;;;;;;;14.00;6.90;;;;;;;25.50;24.39;99406.42;106128;1271;111509;-78
2022/03/28 10:08:54;;;;;;;21.70;7.40;;;;;;;25.25;23.94;99404.23;106320;1271;98417;-71
2022/03/28 10:11:24;;;;;;;15.40;6.60;;;;;;;24.78;24.10;99401.79;106055;1271;107777;-71
2022/03/28 10:13:53;;;;;;;18.80;7.40;;;;;;;24.51;24.14;99400.41;106195;1271;98236;-69
2022/03/28 10:16:29;;;;;;;16.60;7.00;;;;;;;24.15;22.39;99387.27;106302;1271;97950;-72
2022/03/28 10:18:58;;;;;;;17.40;7.70;;;;;;;23.67;23.43;99391.63;106293;1271;111398;-71
2022/03/28 10:21:31;;;;;;;20.30;6.60;;;;;;;23.25;23.55;99382.91;106324;1271;96834;-72
2022/03/28 10:24:16;;;;;;;15.60;6.90;;;;;;;22.94;23.65;99375.02;106184;1271;108324;-73
2022/03/28 10:26:49;;;;;;;16.70;7.40;;;;;;;22.75;22.92;99378.17;106317;1271;97888;-69
2022/03/28 10:29:22;;;;;;;17.80;6.80;;;;;;;22.28;22.97;99369.08;106254;1271;97889;-72
2022/03/28 10:31:57;;;;;;;17.20;7.10;;;;;;;21.81;23.16;99370.85;106221;1271;112913;-73
2022/03/28 10:34:41;;;;;;;17.30;7.60;;;;;;;21.55;23.27;99362.73;106211;1271;97723;-71
2022/03/28 10:37:27;;;;;;;17.40;7.10;;;;;;;21.46;23.41;99361.04;106126;1271;108335;-73
2022/03/28 10:40:23;;;;;;;16.90;6.60;;;;;;;21.38;23.57;99351.46;105911;1271;98020;-71
2022/03/28 10:43:13;;;;;;;17.90;7.00;;;;;;;21.30;23.65;99352.36;105992;1271;97870;-71
2022/03/28 10:45:56;;;;;;;17.20;6.40;;;;;;;21.21;23.58;99342.59;105968;1271;111439;-71
2022/03/28 10:48:39;;;;;;;20.80;7.30;;;;;;;21.04;23.52;99333.73;106169;1271;97745;-71
2022/03/28 10:51:12;;;;;;;14.90;6.60;;;;;;;20.76;23.10;99330.65;106137;1271;107979;-71
2022/03/28 10:53:47;;;;;;;14.50;6.60;;;;;;;20.56;23.25;99326.73;106315;1271;97850;-72
2022/03/28 10:56:20;;;;;;;18.30;7.30;;;;;;;20.48;23.17;99315.55;106202;1271;97775;-71
2022/03/28 10:58:55;;;;;;;16.20;6.60;;;;;;;20.44;23.28;99304.80;106254;1271;112352;-73
2022/03/28 11:01:43;;;;;;;16.30;6.30;;;;;;;20.40;23.22;99302.34;106230;1272;97992;-71
2022/03/28 11:04:12;;;;;;;16.00;6.00;;;;;;;20.39;23.38;99291.13;106196;1271;107715;-71
2022/03/28 11:07:00;;;;;;;15.40;6.60;;;;;;;20.28;22.81;99297.48;106198;1270;97954;-70
2022/03/28 11:09:49;;;;;;;18.20;7.00;;;;;;;19.94;22.94;99287.70;106276;1271;96276;-72
2022/03/28 11:12:40;;;;;;;15.80;6.00;;;;;;;19.65;23.04;99281.97;106293;1271;111533;-72
2022/03/28 11:15:24;;;;;;;16.30;6.30;;;;;;;19.59;23.18;99276.11;106204;1272;95970;-73
2022/03/28 11:17:57;;;;;;;15.90;5.70;;;;;;;19.62;22.94;99270.21;106281;1271;107791;-74
2022/03/28 11:20:28;;;;;;;15.00;5.80;;;;;;;19.41;22.78;99263.98;106246;1271;97886;-74
2022/03/28 11:23:06;;;;;;;15.20;5.80;;;;;;;19.25;23.13;99251.82;106128;1271;97982;-73
2022/03/28 11:25:37;;;;;;;14.30;5.70;;;;;;;19.29;23.15;99251.37;106229;1271;112087;-71
2022/03/28 11:28:13;;;;;;;19.40;6.20;;;;;;;19.36;23.10;99235.96;106278;1271;97893;-71
2022/03/28 11:30:44;;;;;;;17.00;7.20;;;;;;;19.38;23.10;99235.87;106200;1271;107725;-72
2022/03/28 11:33:21;;;;;;;15.40;5.60;;;;;;;19.44;23.07;99229.02;106294;1271;97956;-69
2022/03/28 11:36:06;;;;;;;12.50;5.20;;;;;;;19.41;23.05;99220.44;106289;1271;95940;-72